sensor_id;sensor_type;location;lat;lon;timestamp;P1;durP1;ratioP1;P2;durP2;ratioP2
36355;SDS011;22384;54.302;18.596;2024-01-07T00:00:02;3.22;;;2.05;;
36355;SDS011;22384;54.302;18.596;2024-01-07T00:02:28;3.65;;;1.90;;
36355;SDS011;22384;54.302;18.596;2024-01-07T00:04:56;4.75;;;2.40;;
36355;SDS011;22384;54.302;18.596;2024-01-07T00:07:22;15.90;;;4.70;;
36355;SDS011;22384;54.302;18.596;2024-01-07T00:09:48;5.38;;;2.25;;
36355;SDS011;22384;54.302;18.596;2024-01-07T00:12:15;5.25;;;2.15;;
36355;SDS011;22384;54.302;18.596;2024-01-07T00:14:42;3.97;;;2.22;;
36355;SDS011;22384;54.302;18.596;2024-01-07T00:17:08;4.43;;;2.20;;
36355;SDS011;22384;54.302;18.596;2024-01-07T00:19:34;3.25;;;1.63;;
36355;SDS011;22384;54.302;18.596;2024-01-07T00:22:02;17.58;;;9.68;;
36355;SDS011;22384;54.302;18.596;2024-01-07T00:24:28;19.00;;;9.35;;
36355;SDS011;22384;54.302;18.596;2024-01-07T00:26:54;26.20;;;11.68;;
36355;SDS011;22384;54.302;18.596;2024-01-07T00:32:21;11.32;;;6.15;;
36355;SDS011;22384;54.302;18.596;2024-01-07T00:34:48;4.25;;;2.75;;
36355;SDS011;22384;54.302;18.596;2024-01-07T00:37:14;6.03;;;2.58;;
36355;SDS011;22384;54.302;18.596;2024-01-07T00:39:40;7.15;;;2.42;;
36355;SDS011;22384;54.302;18.596;2024-01-07T00:42:07;4.18;;;2.22;;
36355;SDS011;22384;54.302;18.596;2024-01-07T00:44:33;4.68;;;2.40;;
36355;SDS011;22384;54.302;18.596;2024-01-07T00:46:59;30.55;;;10.15;;
36355;SDS011;22384;54.302;18.596;2024-01-07T00:49:25;12.45;;;6.32;;
36355;SDS011;22384;54.302;18.596;2024-01-07T00:51:53;5.80;;;3.33;;
36355;SDS011;22384;54.302;18.596;2024-01-07T00:54:19;7.40;;;3.03;;
36355;SDS011;22384;54.302;18.596;2024-01-07T00:56:45;15.00;;;8.77;;
36355;SDS011;22384;54.302;18.596;2024-01-07T00:59:11;8.15;;;5.45;;
36355;SDS011;22384;54.302;18.596;2024-01-07T01:01:37;7.22;;;4.30;;
36355;SDS011;22384;54.302;18.596;2024-01-07T01:04:03;8.32;;;4.45;;
36355;SDS011;22384;54.302;18.596;2024-01-07T01:06:29;8.38;;;4.35;;
36355;SDS011;22384;54.302;18.596;2024-01-07T01:08:55;3.42;;;2.60;;
36355;SDS011;22384;54.302;18.596;2024-01-07T01:11:21;4.68;;;2.50;;
36355;SDS011;22384;54.302;18.596;2024-01-07T01:13:47;4.30;;;2.42;;
36355;SDS011;22384;54.302;18.596;2024-01-07T01:16:13;5.00;;;2.50;;
36355;SDS011;22384;54.302;18.596;2024-01-07T01:18:39;8.88;;;2.42;;
36355;SDS011;22384;54.302;18.596;2024-01-07T01:21:05;5.18;;;2.67;;
36355;SDS011;22384;54.302;18.596;2024-01-07T01:23:32;5.30;;;2.58;;
36355;SDS011;22384;54.302;18.596;2024-01-07T01:25:59;6.30;;;3.13;;
36355;SDS011;22384;54.302;18.596;2024-01-07T01:28:25;4.68;;;2.58;;
36355;SDS011;22384;54.302;18.596;2024-01-07T01:30:51;3.58;;;2.55;;
36355;SDS011;22384;54.302;18.596;2024-01-07T01:33:17;4.97;;;2.75;;
36355;SDS011;22384;54.302;18.596;2024-01-07T01:35:43;7.32;;;2.80;;
36355;SDS011;22384;54.302;18.596;2024-01-07T01:38:09;4.82;;;2.60;;
36355;SDS011;22384;54.302;18.596;2024-01-07T01:40:35;4.47;;;2.63;;
36355;SDS011;22384;54.302;18.596;2024-01-07T01:43:01;4.80;;;2.72;;
36355;SDS011;22384;54.302;18.596;2024-01-07T01:45:27;5.18;;;2.80;;
36355;SDS011;22384;54.302;18.596;2024-01-07T01:47:53;6.07;;;2.63;;
36355;SDS011;22384;54.302;18.596;2024-01-07T01:50:19;5.07;;;2.75;;
36355;SDS011;22384;54.302;18.596;2024-01-07T01:52:46;17.42;;;6.47;;
36355;SDS011;22384;54.302;18.596;2024-01-07T01:55:12;6.82;;;3.30;;
36355;SDS011;22384;54.302;18.596;2024-01-07T01:57:38;21.77;;;9.45;;
36355;SDS011;22384;54.302;18.596;2024-01-07T02:00:05;18.83;;;6.97;;
36355;SDS011;22384;54.302;18.596;2024-01-07T02:02:31;17.13;;;5.70;;
36355;SDS011;22384;54.302;18.596;2024-01-07T02:05:02;43.80;;;19.45;;
36355;SDS011;22384;54.302;18.596;2024-01-07T02:07:29;14.70;;;5.10;;
36355;SDS011;22384;54.302;18.596;2024-01-07T02:09:56;7.75;;;4.43;;
36355;SDS011;22384;54.302;18.596;2024-01-07T02:12:22;7.43;;;3.45;;
36355;SDS011;22384;54.302;18.596;2024-01-07T02:14:48;10.20;;;4.85;;
36355;SDS011;22384;54.302;18.596;2024-01-07T02:17:14;13.18;;;6.88;;
36355;SDS011;22384;54.302;18.596;2024-01-07T02:19:41;21.55;;;10.82;;
36355;SDS011;22384;54.302;18.596;2024-01-07T02:22:07;21.48;;;10.45;;
36355;SDS011;22384;54.302;18.596;2024-01-07T02:24:33;11.10;;;5.22;;
36355;SDS011;22384;54.302;18.596;2024-01-07T02:26:59;15.73;;;7.10;;
36355;SDS011;22384;54.302;18.596;2024-01-07T02:29:27;21.08;;;9.93;;
36355;SDS011;22384;54.302;18.596;2024-01-07T02:31:54;8.38;;;4.95;;
36355;SDS011;22384;54.302;18.596;2024-01-07T02:34:20;23.23;;;10.10;;
36355;SDS011;22384;54.302;18.596;2024-01-07T02:36:46;47.35;;;19.33;;
36355;SDS011;22384;54.302;18.596;2024-01-07T02:39:12;16.35;;;8.35;;
36355;SDS011;22384;54.302;18.596;2024-01-07T02:41:38;5.82;;;3.45;;
36355;SDS011;22384;54.302;18.596;2024-01-07T02:44:04;12.63;;;4.40;;
36355;SDS011;22384;54.302;18.596;2024-01-07T02:46:30;9.05;;;3.40;;
36355;SDS011;22384;54.302;18.596;2024-01-07T02:48:56;6.93;;;3.85;;
36355;SDS011;22384;54.302;18.596;2024-01-07T02:51:22;4.18;;;2.65;;
36355;SDS011;22384;54.302;18.596;2024-01-07T02:53:48;26.15;;;10.85;;
36355;SDS011;22384;54.302;18.596;2024-01-07T02:56:15;8.52;;;3.60;;
36355;SDS011;22384;54.302;18.596;2024-01-07T02:58:41;5.82;;;3.35;;
36355;SDS011;22384;54.302;18.596;2024-01-07T03:01:10;7.18;;;4.22;;
36355;SDS011;22384;54.302;18.596;2024-01-07T03:03:36;7.47;;;3.78;;
36355;SDS011;22384;54.302;18.596;2024-01-07T03:06:03;13.63;;;8.40;;
36355;SDS011;22384;54.302;18.596;2024-01-07T03:08:29;11.13;;;5.82;;
36355;SDS011;22384;54.302;18.596;2024-01-07T03:10:55;12.38;;;6.40;;
36355;SDS011;22384;54.302;18.596;2024-01-07T03:13:21;8.93;;;5.55;;
36355;SDS011;22384;54.302;18.596;2024-01-07T03:15:47;8.32;;;4.35;;
36355;SDS011;22384;54.302;18.596;2024-01-07T03:18:13;5.78;;;3.42;;
36355;SDS011;22384;54.302;18.596;2024-01-07T03:20:39;6.07;;;3.38;;
36355;SDS011;22384;54.302;18.596;2024-01-07T03:23:05;4.32;;;2.67;;
36355;SDS011;22384;54.302;18.596;2024-01-07T03:25:31;6.93;;;3.70;;
36355;SDS011;22384;54.302;18.596;2024-01-07T03:27:57;10.05;;;4.20;;
36355;SDS011;22384;54.302;18.596;2024-01-07T03:30:23;9.07;;;5.53;;
36355;SDS011;22384;54.302;18.596;2024-01-07T03:32:50;13.88;;;6.50;;
36355;SDS011;22384;54.302;18.596;2024-01-07T03:35:16;10.50;;;4.10;;
36355;SDS011;22384;54.302;18.596;2024-01-07T03:37:42;6.97;;;3.47;;
36355;SDS011;22384;54.302;18.596;2024-01-07T03:40:11;8.15;;;4.55;;
36355;SDS011;22384;54.302;18.596;2024-01-07T03:42:37;12.60;;;4.63;;
36355;SDS011;22384;54.302;18.596;2024-01-07T03:45:03;5.45;;;3.55;;
36355;SDS011;22384;54.302;18.596;2024-01-07T03:47:30;6.25;;;3.03;;
36355;SDS011;22384;54.302;18.596;2024-01-07T03:49:56;9.88;;;5.55;;
36355;SDS011;22384;54.302;18.596;2024-01-07T03:52:22;9.88;;;4.85;;
36355;SDS011;22384;54.302;18.596;2024-01-07T03:54:48;18.15;;;7.55;;
36355;SDS011;22384;54.302;18.596;2024-01-07T03:57:14;16.17;;;8.20;;
36355;SDS011;22384;54.302;18.596;2024-01-07T03:59:40;12.63;;;6.40;;
36355;SDS011;22384;54.302;18.596;2024-01-07T04:02:06;10.95;;;4.78;;
36355;SDS011;22384;54.302;18.596;2024-01-07T04:04:32;12.20;;;6.10;;
36355;SDS011;22384;54.302;18.596;2024-01-07T04:06:59;11.30;;;5.45;;
36355;SDS011;22384;54.302;18.596;2024-01-07T04:09:25;7.15;;;3.78;;
36355;SDS011;22384;54.302;18.596;2024-01-07T04:11:51;8.45;;;3.95;;
36355;SDS011;22384;54.302;18.596;2024-01-07T04:14:17;11.48;;;4.88;;
36355;SDS011;22384;54.302;18.596;2024-01-07T04:16:43;12.52;;;4.05;;
36355;SDS011;22384;54.302;18.596;2024-01-07T04:19:09;7.80;;;4.07;;
36355;SDS011;22384;54.302;18.596;2024-01-07T04:21:35;6.63;;;4.10;;
36355;SDS011;22384;54.302;18.596;2024-01-07T04:24:01;8.43;;;3.00;;
36355;SDS011;22384;54.302;18.596;2024-01-07T04:26:27;12.80;;;4.18;;
36355;SDS011;22384;54.302;18.596;2024-01-07T04:28:53;7.53;;;3.50;;
36355;SDS011;22384;54.302;18.596;2024-01-07T04:31:19;9.13;;;4.20;;
36355;SDS011;22384;54.302;18.596;2024-01-07T04:33:45;6.22;;;3.60;;
36355;SDS011;22384;54.302;18.596;2024-01-07T04:36:11;9.70;;;4.07;;
36355;SDS011;22384;54.302;18.596;2024-01-07T04:38:37;7.63;;;3.85;;
36355;SDS011;22384;54.302;18.596;2024-01-07T04:41:04;9.70;;;4.32;;
36355;SDS011;22384;54.302;18.596;2024-01-07T04:43:32;10.00;;;4.47;;
36355;SDS011;22384;54.302;18.596;2024-01-07T04:45:58;6.05;;;3.60;;
36355;SDS011;22384;54.302;18.596;2024-01-07T04:48:24;7.57;;;3.65;;
36355;SDS011;22384;54.302;18.596;2024-01-07T04:50:50;6.53;;;3.58;;
36355;SDS011;22384;54.302;18.596;2024-01-07T04:53:16;8.48;;;3.70;;
36355;SDS011;22384;54.302;18.596;2024-01-07T04:55:42;8.65;;;3.75;;
36355;SDS011;22384;54.302;18.596;2024-01-07T04:58:08;6.72;;;3.55;;
36355;SDS011;22384;54.302;18.596;2024-01-07T05:00:34;7.15;;;3.63;;
36355;SDS011;22384;54.302;18.596;2024-01-07T05:03:00;7.72;;;3.53;;
36355;SDS011;22384;54.302;18.596;2024-01-07T05:05:26;8.00;;;3.75;;
36355;SDS011;22384;54.302;18.596;2024-01-07T05:07:52;7.35;;;4.10;;
36355;SDS011;22384;54.302;18.596;2024-01-07T05:10:18;9.32;;;3.65;;
36355;SDS011;22384;54.302;18.596;2024-01-07T05:12:44;7.75;;;3.78;;
36355;SDS011;22384;54.302;18.596;2024-01-07T05:15:11;7.90;;;3.63;;
36355;SDS011;22384;54.302;18.596;2024-01-07T05:17:37;5.45;;;3.15;;
36355;SDS011;22384;54.302;18.596;2024-01-07T05:20:03;7.05;;;3.50;;
36355;SDS011;22384;54.302;18.596;2024-01-07T05:22:31;6.70;;;3.40;;
36355;SDS011;22384;54.302;18.596;2024-01-07T05:24:57;9.35;;;3.72;;
36355;SDS011;22384;54.302;18.596;2024-01-07T05:27:23;7.65;;;3.80;;
36355;SDS011;22384;54.302;18.596;2024-01-07T05:29:49;5.70;;;3.35;;
36355;SDS011;22384;54.302;18.596;2024-01-07T05:32:15;7.40;;;3.75;;
36355;SDS011;22384;54.302;18.596;2024-01-07T05:34:41;9.02;;;4.00;;
36355;SDS011;22384;54.302;18.596;2024-01-07T05:37:07;8.63;;;3.55;;
36355;SDS011;22384;54.302;18.596;2024-01-07T05:39:33;7.75;;;3.55;;
36355;SDS011;22384;54.302;18.596;2024-01-07T05:41:59;8.48;;;3.83;;
36355;SDS011;22384;54.302;18.596;2024-01-07T05:44:25;7.18;;;3.67;;
36355;SDS011;22384;54.302;18.596;2024-01-07T05:46:51;7.85;;;4.13;;
36355;SDS011;22384;54.302;18.596;2024-01-07T05:49:18;12.48;;;3.97;;
36355;SDS011;22384;54.302;18.596;2024-01-07T05:51:44;5.53;;;3.38;;
36355;SDS011;22384;54.302;18.596;2024-01-07T05:54:10;7.85;;;3.35;;
36355;SDS011;22384;54.302;18.596;2024-01-07T05:56:39;10.82;;;3.75;;
36355;SDS011;22384;54.302;18.596;2024-01-07T05:59:05;7.00;;;3.40;;
36355;SDS011;22384;54.302;18.596;2024-01-07T06:01:31;4.90;;;3.05;;
36355;SDS011;22384;54.302;18.596;2024-01-07T06:03:57;7.57;;;3.40;;
36355;SDS011;22384;54.302;18.596;2024-01-07T06:06:23;8.77;;;4.05;;
36355;SDS011;22384;54.302;18.596;2024-01-07T06:08:49;9.70;;;3.88;;
36355;SDS011;22384;54.302;18.596;2024-01-07T06:11:15;7.28;;;3.50;;
36355;SDS011;22384;54.302;18.596;2024-01-07T06:13:45;9.10;;;4.13;;
36355;SDS011;22384;54.302;18.596;2024-01-07T06:16:11;7.05;;;3.75;;
36355;SDS011;22384;54.302;18.596;2024-01-07T06:18:37;9.88;;;4.20;;
36355;SDS011;22384;54.302;18.596;2024-01-07T06:21:03;8.05;;;3.35;;
36355;SDS011;22384;54.302;18.596;2024-01-07T06:23:29;7.25;;;3.85;;
36355;SDS011;22384;54.302;18.596;2024-01-07T06:25:55;12.88;;;3.80;;
36355;SDS011;22384;54.302;18.596;2024-01-07T06:28:21;7.47;;;3.15;;
36355;SDS011;22384;54.302;18.596;2024-01-07T06:30:47;8.35;;;3.75;;
36355;SDS011;22384;54.302;18.596;2024-01-07T06:33:13;9.95;;;3.67;;
36355;SDS011;22384;54.302;18.596;2024-01-07T06:35:40;11.15;;;3.58;;
36355;SDS011;22384;54.302;18.596;2024-01-07T06:38:06;9.27;;;3.78;;
36355;SDS011;22384;54.302;18.596;2024-01-07T06:40:32;7.90;;;3.63;;
36355;SDS011;22384;54.302;18.596;2024-01-07T06:42:58;10.77;;;3.15;;
36355;SDS011;22384;54.302;18.596;2024-01-07T06:45:24;7.43;;;3.95;;
36355;SDS011;22384;54.302;18.596;2024-01-07T06:47:50;8.23;;;3.92;;
36355;SDS011;22384;54.302;18.596;2024-01-07T06:50:16;7.07;;;3.38;;
36355;SDS011;22384;54.302;18.596;2024-01-07T06:52:42;8.90;;;3.75;;
36355;SDS011;22384;54.302;18.596;2024-01-07T06:55:08;8.65;;;3.50;;
36355;SDS011;22384;54.302;18.596;2024-01-07T06:57:34;7.38;;;3.33;;
36355;SDS011;22384;54.302;18.596;2024-01-07T07:00:01;10.10;;;3.70;;
36355;SDS011;22384;54.302;18.596;2024-01-07T07:02:27;8.60;;;3.67;;
36355;SDS011;22384;54.302;18.596;2024-01-07T07:04:53;10.23;;;3.83;;
36355;SDS011;22384;54.302;18.596;2024-01-07T07:07:20;6.03;;;3.30;;
36355;SDS011;22384;54.302;18.596;2024-01-07T07:09:46;6.93;;;3.33;;
36355;SDS011;22384;54.302;18.596;2024-01-07T07:12:12;9.35;;;3.55;;
36355;SDS011;22384;54.302;18.596;2024-01-07T07:14:38;8.23;;;4.05;;
36355;SDS011;22384;54.302;18.596;2024-01-07T07:17:04;12.05;;;4.50;;
36355;SDS011;22384;54.302;18.596;2024-01-07T07:19:30;6.80;;;3.03;;
36355;SDS011;22384;54.302;18.596;2024-01-07T07:21:56;9.05;;;4.30;;
36355;SDS011;22384;54.302;18.596;2024-01-07T07:24:22;10.18;;;4.63;;
36355;SDS011;22384;54.302;18.596;2024-01-07T07:26:48;12.20;;;4.88;;
36355;SDS011;22384;54.302;18.596;2024-01-07T07:29:14;16.13;;;5.60;;
36355;SDS011;22384;54.302;18.596;2024-01-07T07:31:40;9.48;;;4.97;;
36355;SDS011;22384;54.302;18.596;2024-01-07T07:34:08;12.40;;;5.13;;
36355;SDS011;22384;54.302;18.596;2024-01-07T07:36:34;16.40;;;5.18;;
36355;SDS011;22384;54.302;18.596;2024-01-07T07:39:00;9.73;;;5.20;;
36355;SDS011;22384;54.302;18.596;2024-01-07T07:41:26;60.88;;;17.83;;
36355;SDS011;22384;54.302;18.596;2024-01-07T07:43:53;24.50;;;9.55;;
36355;SDS011;22384;54.302;18.596;2024-01-07T07:46:19;22.20;;;9.50;;
36355;SDS011;22384;54.302;18.596;2024-01-07T07:48:45;14.68;;;7.20;;
36355;SDS011;22384;54.302;18.596;2024-01-07T07:51:11;21.02;;;8.80;;
36355;SDS011;22384;54.302;18.596;2024-01-07T07:53:38;24.42;;;9.65;;
36355;SDS011;22384;54.302;18.596;2024-01-07T07:56:05;15.13;;;7.05;;
36355;SDS011;22384;54.302;18.596;2024-01-07T07:58:31;98.18;;;24.70;;
36355;SDS011;22384;54.302;18.596;2024-01-07T08:00:57;61.90;;;18.25;;
36355;SDS011;22384;54.302;18.596;2024-01-07T08:03:23;67.25;;;21.27;;
36355;SDS011;22384;54.302;18.596;2024-01-07T08:05:49;37.80;;;16.05;;
36355;SDS011;22384;54.302;18.596;2024-01-07T08:08:16;87.22;;;25.70;;
36355;SDS011;22384;54.302;18.596;2024-01-07T08:10:42;32.40;;;13.77;;
36355;SDS011;22384;54.302;18.596;2024-01-07T08:13:08;19.40;;;10.32;;
36355;SDS011;22384;54.302;18.596;2024-01-07T08:15:34;21.05;;;10.25;;
36355;SDS011;22384;54.302;18.596;2024-01-07T08:18:02;16.75;;;8.25;;
36355;SDS011;22384;54.302;18.596;2024-01-07T08:20:28;16.83;;;8.60;;
36355;SDS011;22384;54.302;18.596;2024-01-07T08:22:54;21.98;;;10.57;;
36355;SDS011;22384;54.302;18.596;2024-01-07T08:25:20;19.25;;;9.00;;
36355;SDS011;22384;54.302;18.596;2024-01-07T08:27:48;24.10;;;11.18;;
36355;SDS011;22384;54.302;18.596;2024-01-07T08:30:14;22.73;;;10.20;;
36355;SDS011;22384;54.302;18.596;2024-01-07T08:32:40;28.65;;;12.75;;
36355;SDS011;22384;54.302;18.596;2024-01-07T08:35:07;15.13;;;7.57;;
36355;SDS011;22384;54.302;18.596;2024-01-07T08:37:33;24.33;;;10.98;;
36355;SDS011;22384;54.302;18.596;2024-01-07T08:39:59;29.33;;;14.48;;
36355;SDS011;22384;54.302;18.596;2024-01-07T08:42:26;25.58;;;14.27;;
36355;SDS011;22384;54.302;18.596;2024-01-07T08:44:55;17.58;;;7.93;;
36355;SDS011;22384;54.302;18.596;2024-01-07T08:47:21;17.00;;;8.30;;
36355;SDS011;22384;54.302;18.596;2024-01-07T08:49:47;15.73;;;7.78;;
36355;SDS011;22384;54.302;18.596;2024-01-07T08:52:13;16.83;;;8.38;;
36355;SDS011;22384;54.302;18.596;2024-01-07T08:54:39;19.48;;;7.90;;
36355;SDS011;22384;54.302;18.596;2024-01-07T08:57:05;14.10;;;6.78;;
36355;SDS011;22384;54.302;18.596;2024-01-07T08:59:33;13.18;;;6.53;;
36355;SDS011;22384;54.302;18.596;2024-01-07T09:02:00;12.18;;;6.18;;
36355;SDS011;22384;54.302;18.596;2024-01-07T09:04:26;15.48;;;7.25;;
36355;SDS011;22384;54.302;18.596;2024-01-07T09:06:52;17.67;;;7.60;;
36355;SDS011;22384;54.302;18.596;2024-01-07T09:09:18;16.50;;;6.93;;
36355;SDS011;22384;54.302;18.596;2024-01-07T09:11:44;24.73;;;9.15;;
36355;SDS011;22384;54.302;18.596;2024-01-07T09:14:10;20.13;;;9.98;;
36355;SDS011;22384;54.302;18.596;2024-01-07T09:16:36;13.90;;;8.25;;
36355;SDS011;22384;54.302;18.596;2024-01-07T09:19:02;20.58;;;9.60;;
36355;SDS011;22384;54.302;18.596;2024-01-07T09:21:29;23.25;;;12.27;;
36355;SDS011;22384;54.302;18.596;2024-01-07T09:23:55;16.63;;;9.82;;
36355;SDS011;22384;54.302;18.596;2024-01-07T09:26:21;29.45;;;15.63;;
36355;SDS011;22384;54.302;18.596;2024-01-07T09:28:48;23.27;;;12.13;;
36355;SDS011;22384;54.302;18.596;2024-01-07T09:31:14;17.77;;;10.07;;
36355;SDS011;22384;54.302;18.596;2024-01-07T09:33:40;37.28;;;18.60;;
36355;SDS011;22384;54.302;18.596;2024-01-07T09:36:07;28.42;;;13.73;;
36355;SDS011;22384;54.302;18.596;2024-01-07T09:38:33;15.13;;;7.05;;
36355;SDS011;22384;54.302;18.596;2024-01-07T09:40:59;8.90;;;4.53;;
36355;SDS011;22384;54.302;18.596;2024-01-07T09:43:25;9.70;;;5.32;;
36355;SDS011;22384;54.302;18.596;2024-01-07T09:45:52;12.73;;;5.43;;
36355;SDS011;22384;54.302;18.596;2024-01-07T09:48:19;11.93;;;5.72;;
36355;SDS011;22384;54.302;18.596;2024-01-07T09:50:45;15.30;;;5.43;;
36355;SDS011;22384;54.302;18.596;2024-01-07T09:53:14;14.85;;;6.53;;
36355;SDS011;22384;54.302;18.596;2024-01-07T09:55:56;20.10;;;7.75;;
36355;SDS011;22384;54.302;18.596;2024-01-07T09:58:23;15.53;;;6.57;;
36355;SDS011;22384;54.302;18.596;2024-01-07T10:00:49;16.52;;;7.90;;
36355;SDS011;22384;54.302;18.596;2024-01-07T10:03:15;21.52;;;8.23;;
36355;SDS011;22384;54.302;18.596;2024-01-07T10:05:41;9.20;;;5.47;;
36355;SDS011;22384;54.302;18.596;2024-01-07T10:08:07;9.38;;;6.05;;
36355;SDS011;22384;54.302;18.596;2024-01-07T10:10:34;11.15;;;5.28;;
36355;SDS011;22384;54.302;18.596;2024-01-07T10:13:01;14.90;;;4.90;;
36355;SDS011;22384;54.302;18.596;2024-01-07T10:15:27;10.30;;;5.07;;
36355;SDS011;22384;54.302;18.596;2024-01-07T10:18:02;16.92;;;5.32;;
36355;SDS011;22384;54.302;18.596;2024-01-07T10:20:28;4.90;;;3.13;;
36355;SDS011;22384;54.302;18.596;2024-01-07T10:22:54;8.65;;;3.92;;
36355;SDS011;22384;54.302;18.596;2024-01-07T10:25:20;10.95;;;4.30;;
36355;SDS011;22384;54.302;18.596;2024-01-07T10:27:46;12.75;;;4.60;;
36355;SDS011;22384;54.302;18.596;2024-01-07T10:30:13;13.02;;;4.68;;
36355;SDS011;22384;54.302;18.596;2024-01-07T10:32:41;6.97;;;3.45;;
36355;SDS011;22384;54.302;18.596;2024-01-07T10:35:08;12.05;;;4.00;;
36355;SDS011;22384;54.302;18.596;2024-01-07T10:37:36;6.20;;;3.13;;
36355;SDS011;22384;54.302;18.596;2024-01-07T10:40:02;8.60;;;4.43;;
36355;SDS011;22384;54.302;18.596;2024-01-07T10:42:32;8.77;;;4.10;;
36355;SDS011;22384;54.302;18.596;2024-01-07T10:45:01;11.35;;;4.22;;
36355;SDS011;22384;54.302;18.596;2024-01-07T10:47:29;8.15;;;3.90;;
36355;SDS011;22384;54.302;18.596;2024-01-07T10:50:08;9.13;;;4.22;;
36355;SDS011;22384;54.302;18.596;2024-01-07T10:52:39;7.95;;;3.20;;
36355;SDS011;22384;54.302;18.596;2024-01-07T10:55:18;8.05;;;4.13;;
36355;SDS011;22384;54.302;18.596;2024-01-07T10:57:46;7.65;;;4.50;;
36355;SDS011;22384;54.302;18.596;2024-01-07T11:00:18;7.38;;;3.40;;
36355;SDS011;22384;54.302;18.596;2024-01-07T11:08:21;7.13;;;3.33;;
36355;SDS011;22384;54.302;18.596;2024-01-07T11:10:57;8.50;;;3.47;;
36355;SDS011;22384;54.302;18.596;2024-01-07T11:13:36;9.30;;;3.67;;
36355;SDS011;22384;54.302;18.596;2024-01-07T11:16:03;11.48;;;3.33;;
36355;SDS011;22384;54.302;18.596;2024-01-07T11:18:30;10.15;;;3.72;;
36355;SDS011;22384;54.302;18.596;2024-01-07T11:21:01;8.98;;;3.60;;
36355;SDS011;22384;54.302;18.596;2024-01-07T11:25:55;9.15;;;3.65;;
36355;SDS011;22384;54.302;18.596;2024-01-07T11:28:40;5.85;;;3.55;;
36355;SDS011;22384;54.302;18.596;2024-01-07T11:31:07;26.52;;;9.45;;
36355;SDS011;22384;54.302;18.596;2024-01-07T11:33:34;12.02;;;4.38;;
36355;SDS011;22384;54.302;18.596;2024-01-07T11:36:02;8.73;;;3.90;;
36355;SDS011;22384;54.302;18.596;2024-01-07T11:38:28;9.52;;;4.68;;
36355;SDS011;22384;54.302;18.596;2024-01-07T11:40:56;12.23;;;4.32;;
36355;SDS011;22384;54.302;18.596;2024-01-07T11:43:22;7.53;;;3.70;;
36355;SDS011;22384;54.302;18.596;2024-01-07T11:45:51;10.13;;;4.18;;
36355;SDS011;22384;54.302;18.596;2024-01-07T11:48:19;8.30;;;3.67;;
36355;SDS011;22384;54.302;18.596;2024-01-07T11:50:45;8.45;;;4.05;;
36355;SDS011;22384;54.302;18.596;2024-01-07T11:53:11;4.05;;;2.72;;
36355;SDS011;22384;54.302;18.596;2024-01-07T11:55:38;10.85;;;4.10;;
36355;SDS011;22384;54.302;18.596;2024-01-07T11:58:04;6.60;;;3.50;;
36355;SDS011;22384;54.302;18.596;2024-01-07T12:00:31;13.13;;;4.05;;
36355;SDS011;22384;54.302;18.596;2024-01-07T12:02:58;7.60;;;3.33;;
36355;SDS011;22384;54.302;18.596;2024-01-07T12:05:24;10.68;;;4.47;;
36355;SDS011;22384;54.302;18.596;2024-01-07T12:07:50;14.73;;;6.03;;
36355;SDS011;22384;54.302;18.596;2024-01-07T12:10:16;27.23;;;9.15;;
36355;SDS011;22384;54.302;18.596;2024-01-07T12:12:43;13.23;;;5.93;;
36355;SDS011;22384;54.302;18.596;2024-01-07T12:15:09;24.63;;;7.88;;
36355;SDS011;22384;54.302;18.596;2024-01-07T12:17:41;29.57;;;13.73;;
36355;SDS011;22384;54.302;18.596;2024-01-07T12:20:07;19.90;;;8.85;;
36355;SDS011;22384;54.302;18.596;2024-01-07T12:22:40;14.57;;;6.47;;
36355;SDS011;22384;54.302;18.596;2024-01-07T12:25:06;16.33;;;7.13;;
36355;SDS011;22384;54.302;18.596;2024-01-07T12:27:33;16.55;;;7.70;;
36355;SDS011;22384;54.302;18.596;2024-01-07T12:30:00;14.35;;;5.57;;
36355;SDS011;22384;54.302;18.596;2024-01-07T12:32:28;18.55;;;6.30;;
36355;SDS011;22384;54.302;18.596;2024-01-07T12:34:56;16.65;;;6.60;;
36355;SDS011;22384;54.302;18.596;2024-01-07T12:40:27;18.60;;;5.20;;
36355;SDS011;22384;54.302;18.596;2024-01-07T12:49:03;10.48;;;5.07;;
36355;SDS011;22384;54.302;18.596;2024-01-07T13:10:31;13.30;;;6.20;;
36355;SDS011;22384;54.302;18.596;2024-01-07T13:12:57;12.02;;;5.28;;
36355;SDS011;22384;54.302;18.596;2024-01-07T13:15:23;14.95;;;5.32;;
36355;SDS011;22384;54.302;18.596;2024-01-07T13:17:49;17.90;;;6.43;;
36355;SDS011;22384;54.302;18.596;2024-01-07T13:20:16;11.90;;;5.13;;
36355;SDS011;22384;54.302;18.596;2024-01-07T13:22:45;14.82;;;5.45;;
36355;SDS011;22384;54.302;18.596;2024-01-07T13:25:11;10.30;;;3.90;;
36355;SDS011;22384;54.302;18.596;2024-01-07T13:27:37;8.75;;;3.58;;
36355;SDS011;22384;54.302;18.596;2024-01-07T13:30:06;13.20;;;5.93;;
36355;SDS011;22384;54.302;18.596;2024-01-07T13:32:32;15.07;;;5.60;;
36355;SDS011;22384;54.302;18.596;2024-01-07T13:35:04;11.68;;;4.82;;
36355;SDS011;22384;54.302;18.596;2024-01-07T13:37:30;10.05;;;4.82;;
36355;SDS011;22384;54.302;18.596;2024-01-07T13:39:56;10.70;;;4.57;;
36355;SDS011;22384;54.302;18.596;2024-01-07T13:42:23;8.15;;;3.80;;
36355;SDS011;22384;54.302;18.596;2024-01-07T13:44:49;13.75;;;4.72;;
36355;SDS011;22384;54.302;18.596;2024-01-07T13:47:15;12.20;;;5.05;;
36355;SDS011;22384;54.302;18.596;2024-01-07T13:49:42;13.25;;;5.45;;
36355;SDS011;22384;54.302;18.596;2024-01-07T13:52:11;15.25;;;5.35;;
36355;SDS011;22384;54.302;18.596;2024-01-07T13:54:37;15.63;;;5.57;;
36355;SDS011;22384;54.302;18.596;2024-01-07T13:57:04;16.50;;;5.72;;
36355;SDS011;22384;54.302;18.596;2024-01-07T13:59:30;10.50;;;5.03;;
36355;SDS011;22384;54.302;18.596;2024-01-07T14:01:56;12.98;;;4.40;;
36355;SDS011;22384;54.302;18.596;2024-01-07T14:04:23;10.88;;;4.82;;
36355;SDS011;22384;54.302;18.596;2024-01-07T14:06:58;11.85;;;4.50;;
36355;SDS011;22384;54.302;18.596;2024-01-07T14:09:24;12.65;;;5.03;;
36355;SDS011;22384;54.302;18.596;2024-01-07T14:11:51;11.30;;;4.60;;
36355;SDS011;22384;54.302;18.596;2024-01-07T14:14:17;8.15;;;3.83;;
36355;SDS011;22384;54.302;18.596;2024-01-07T14:16:46;12.93;;;4.78;;
36355;SDS011;22384;54.302;18.596;2024-01-07T14:19:12;12.25;;;4.38;;
36355;SDS011;22384;54.302;18.596;2024-01-07T14:21:41;12.48;;;3.90;;
36355;SDS011;22384;54.302;18.596;2024-01-07T14:24:07;11.50;;;4.00;;
36355;SDS011;22384;54.302;18.596;2024-01-07T14:26:33;11.15;;;4.88;;
36355;SDS011;22384;54.302;18.596;2024-01-07T14:28:59;12.52;;;5.00;;
36355;SDS011;22384;54.302;18.596;2024-01-07T14:31:25;11.68;;;5.78;;
36355;SDS011;22384;54.302;18.596;2024-01-07T14:33:51;15.65;;;5.97;;
36355;SDS011;22384;54.302;18.596;2024-01-07T14:36:17;11.20;;;5.78;;
36355;SDS011;22384;54.302;18.596;2024-01-07T14:38:44;14.52;;;5.60;;
36355;SDS011;22384;54.302;18.596;2024-01-07T14:41:12;14.02;;;5.65;;
36355;SDS011;22384;54.302;18.596;2024-01-07T14:43:38;13.18;;;6.35;;
36355;SDS011;22384;54.302;18.596;2024-01-07T14:46:06;63.53;;;21.38;;
36355;SDS011;22384;54.302;18.596;2024-01-07T14:48:32;78.63;;;26.38;;
36355;SDS011;22384;54.302;18.596;2024-01-07T14:50:59;30.55;;;13.13;;
36355;SDS011;22384;54.302;18.596;2024-01-07T14:53:25;14.93;;;8.43;;
36355;SDS011;22384;54.302;18.596;2024-01-07T14:55:51;42.40;;;16.48;;
36355;SDS011;22384;54.302;18.596;2024-01-07T14:58:17;53.13;;;18.42;;
36355;SDS011;22384;54.302;18.596;2024-01-07T15:00:43;76.32;;;24.73;;